createdAt,value
2023-02-06T00:02:18.705Z,20.78
2023-02-06T00:05:21.669Z,20.78
2023-02-06T00:08:24.622Z,20.78
2023-02-06T00:11:28.194Z,20.77
2023-02-06T00:14:31.022Z,20.77
2023-02-06T00:17:37.668Z,20.78
2023-02-06T00:20:40.458Z,20.76
2023-02-06T00:23:44.433Z,20.74
2023-02-06T00:26:47.238Z,20.75
2023-02-06T00:29:50.048Z,20.74
2023-02-06T00:32:54.268Z,20.74
2023-02-06T00:35:57.103Z,20.73
2023-02-06T00:39:00.023Z,20.72
2023-02-06T00:42:02.813Z,20.70
2023-02-06T00:45:06.562Z,20.70
2023-02-06T00:48:10.840Z,20.71
2023-02-06T00:51:13.738Z,20.71
2023-02-06T00:54:16.596Z,20.70
2023-02-06T00:57:19.441Z,20.70
2023-02-06T01:00:22.246Z,20.69
2023-02-06T01:03:26.596Z,20.70
2023-02-06T01:06:29.430Z,20.70
2023-02-06T01:09:32.295Z,20.72
2023-02-06T01:12:35.747Z,20.72
2023-02-06T01:15:39.054Z,20.73
2023-02-06T01:18:43.683Z,20.73
2023-02-06T01:21:46.551Z,20.74
2023-02-06T01:24:49.432Z,20.73
2023-02-06T01:27:52.285Z,20.73
2023-02-06T01:30:55.183Z,20.74
2023-02-06T01:34:01.608Z,20.74
2023-02-06T01:37:04.499Z,20.74
2023-02-06T01:40:11.031Z,20.74
2023-02-06T01:43:18.808Z,20.73
2023-02-06T01:46:22.158Z,20.74
2023-02-06T01:49:31.332Z,20.73
2023-02-06T01:52:34.340Z,20.72
2023-02-06T01:55:41.321Z,20.74
2023-02-06T01:58:47.523Z,20.74
2023-02-06T02:01:50.425Z,20.73
2023-02-06T02:04:55.993Z,20.74
2023-02-06T02:08:05.195Z,20.74
2023-02-06T02:11:16.118Z,20.73
2023-02-06T02:14:19.203Z,20.73
2023-02-06T02:17:35.903Z,20.73
2023-02-06T02:21:14.886Z,20.73
2023-02-06T02:24:26.451Z,20.72
2023-02-06T02:27:49.298Z,20.72
2023-02-06T02:31:32.319Z,20.73
2023-02-06T02:35:03.520Z,20.72
2023-02-06T02:38:19.815Z,20.72
2023-02-06T02:41:28.916Z,20.71
2023-02-06T02:44:39.687Z,20.72
2023-02-06T02:47:48.600Z,20.71
2023-02-06T02:50:54.591Z,20.71
2023-02-06T02:53:58.146Z,20.71
2023-02-06T02:57:08.918Z,20.71
2023-02-06T03:00:14.336Z,20.70
2023-02-06T03:03:22.943Z,20.69
2023-02-06T03:06:58.517Z,20.69
2023-02-06T03:10:09.519Z,20.68
2023-02-06T03:13:22.151Z,20.70
2023-02-06T03:16:29.788Z,20.69
2023-02-06T03:19:36.448Z,20.70
2023-02-06T03:22:43.584Z,20.70
2023-02-06T03:25:48.939Z,20.70
2023-02-06T03:28:55.091Z,20.68
2023-02-06T03:32:02.855Z,20.68
2023-02-06T03:35:09.300Z,20.67
2023-02-06T03:38:15.042Z,20.67
2023-02-06T03:41:20.117Z,20.67
2023-02-06T03:44:25.830Z,20.66
2023-02-06T03:47:31.100Z,20.66
2023-02-06T03:50:36.302Z,20.66
2023-02-06T03:53:42.475Z,20.66
2023-02-06T03:56:49.974Z,20.68
2023-02-06T03:59:52.967Z,20.69
2023-02-06T04:02:57.877Z,20.72
2023-02-06T04:06:00.947Z,20.73
2023-02-06T04:09:05.380Z,20.75
2023-02-06T04:12:09.071Z,20.77
2023-02-06T04:15:12.178Z,20.77
2023-02-06T04:18:15.039Z,20.79
2023-02-06T04:21:17.927Z,20.80
2023-02-06T04:24:22.136Z,20.80
2023-02-06T04:27:25.107Z,20.82
2023-02-06T04:30:27.975Z,20.83
2023-02-06T04:33:30.844Z,20.83
2023-02-06T04:36:33.958Z,20.84
2023-02-06T04:39:38.303Z,20.84
2023-02-06T04:42:41.063Z,20.84
2023-02-06T04:45:43.855Z,20.84
2023-02-06T04:48:47.060Z,20.83
2023-02-06T04:51:49.925Z,20.84
2023-02-06T04:54:54.130Z,20.83
2023-02-06T04:57:56.946Z,20.83
2023-02-06T05:00:59.766Z,20.82
2023-02-06T05:04:02.661Z,20.83
2023-02-06T05:07:06.408Z,20.81
2023-02-06T05:10:11.403Z,20.79
2023-02-06T05:13:14.424Z,20.79
2023-02-06T05:16:18.155Z,20.79
2023-02-06T05:19:20.989Z,20.80
2023-02-06T05:22:23.790Z,20.79
2023-02-06T05:25:28.259Z,20.78
2023-02-06T05:28:33.389Z,20.79
2023-02-06T05:31:36.544Z,20.78
2023-02-06T05:34:39.504Z,20.80
2023-02-06T05:37:42.410Z,20.79
2023-02-06T05:40:46.995Z,20.79
2023-02-06T05:43:49.843Z,20.79
2023-02-06T05:46:52.751Z,20.80
2023-02-06T05:49:55.556Z,20.79
2023-02-06T05:52:58.350Z,20.79
2023-02-06T05:56:02.666Z,20.80
2023-02-06T05:59:05.510Z,20.82
2023-02-06T06:02:08.348Z,20.82
2023-02-06T06:05:11.224Z,20.83
2023-02-06T06:08:15.014Z,20.83
2023-02-06T06:11:19.211Z,20.84
2023-02-06T06:14:22.145Z,20.84
2023-02-06T06:17:25.066Z,20.84
2023-02-06T06:20:27.964Z,20.84
2023-02-06T06:23:30.913Z,20.84
2023-02-06T06:26:35.219Z,20.84
2023-02-06T06:29:38.387Z,20.82
2023-02-06T06:32:41.236Z,20.84
2023-02-06T06:35:44.103Z,20.83
2023-02-06T06:38:46.973Z,20.84
2023-02-06T06:41:51.257Z,20.84
2023-02-06T06:44:54.080Z,20.85
2023-02-06T06:47:57.393Z,20.84
2023-02-06T06:51:00.247Z,20.84
2023-02-06T06:54:03.367Z,20.83
2023-02-06T06:57:07.964Z,20.84
2023-02-06T07:00:12.542Z,20.83
2023-02-06T07:03:15.431Z,20.82
2023-02-06T07:06:18.732Z,20.83
2023-02-06T07:09:21.744Z,20.83
2023-02-06T07:12:26.068Z,20.83
2023-02-06T07:15:29.230Z,20.84
2023-02-06T07:18:32.081Z,20.83
2023-02-06T07:21:36.139Z,20.84
2023-02-06T07:24:38.942Z,20.85
2023-02-06T07:27:43.334Z,20.84
2023-02-06T07:30:46.340Z,20.84
2023-02-06T07:33:49.351Z,20.82
2023-02-06T07:36:52.340Z,20.84
2023-02-06T07:39:55.249Z,20.85
2023-02-06T07:42:59.898Z,20.86
2023-02-06T07:46:09.838Z,20.86
2023-02-06T07:49:14.852Z,20.88
2023-02-06T07:52:17.768Z,20.89
2023-02-06T07:55:20.678Z,20.91
2023-02-06T07:58:25.676Z,20.95
2023-02-06T08:01:28.726Z,20.97
2023-02-06T08:04:35.318Z,20.99
2023-02-06T08:07:38.312Z,21.00
2023-02-06T08:10:41.260Z,21.02
2023-02-06T08:13:46.456Z,21.02
2023-02-06T08:16:50.389Z,21.03
2023-02-06T08:19:53.318Z,21.04
2023-02-06T08:22:57.079Z,21.06
2023-02-06T08:26:03.966Z,21.06
2023-02-06T08:29:09.102Z,21.07
2023-02-06T08:32:12.296Z,21.08
2023-02-06T08:35:15.454Z,21.09
2023-02-06T08:38:18.325Z,21.09
2023-02-06T08:41:24.626Z,21.10
2023-02-06T08:44:29.273Z,21.10
2023-02-06T08:47:32.263Z,21.09
2023-02-06T08:50:35.479Z,21.11
2023-02-06T08:53:39.293Z,21.11
2023-02-06T08:56:42.452Z,21.10
2023-02-06T08:59:46.931Z,21.10
2023-02-06T09:02:49.913Z,21.10
2023-02-06T09:05:54.063Z,21.10
2023-02-06T09:08:57.820Z,21.09
2023-02-06T09:12:03.901Z,21.09
2023-02-06T09:15:09.635Z,21.10
2023-02-06T09:18:12.683Z,21.09
2023-02-06T09:21:17.191Z,21.10
2023-02-06T09:24:20.144Z,21.10
2023-02-06T09:27:23.048Z,21.08
2023-02-06T09:30:27.322Z,21.05
2023-02-06T09:33:30.504Z,20.98
2023-02-06T09:36:34.480Z,20.93
2023-02-06T09:39:37.495Z,20.89
2023-02-06T09:42:42.737Z,20.87
2023-02-06T09:45:48.911Z,20.85
2023-02-06T09:48:52.198Z,20.84
2023-02-06T09:52:10.788Z,20.86
2023-02-06T09:55:23.305Z,20.93
2023-02-06T09:58:43.362Z,21.03
2023-02-06T10:01:58.921Z,21.15
2023-02-06T10:05:06.905Z,21.25
2023-02-06T10:08:18.147Z,21.35
2023-02-06T10:11:33.768Z,21.44
2023-02-06T10:14:42.168Z,21.50
2023-02-06T10:17:52.577Z,21.53
2023-02-06T10:20:59.421Z,21.52
2023-02-06T10:24:09.100Z,21.53
2023-02-06T10:27:14.196Z,21.52
2023-02-06T10:30:19.499Z,21.51
2023-02-06T10:33:30.037Z,21.48
2023-02-06T10:36:49.056Z,21.45
2023-02-06T10:40:03.540Z,21.43
2023-02-06T10:43:19.025Z,21.41
2023-02-06T10:46:38.715Z,21.40
2023-02-06T10:49:48.921Z,21.40
2023-02-06T10:52:53.067Z,21.37
2023-02-06T10:56:00.554Z,21.36
2023-02-06T10:59:08.350Z,21.31
2023-02-06T11:02:21.012Z,21.25
2023-02-06T11:05:27.740Z,21.22
2023-02-06T11:08:33.866Z,21.18
2023-02-06T11:11:39.608Z,21.18
2023-02-06T11:14:42.472Z,21.17
2023-02-06T11:17:46.353Z,21.16
2023-02-06T11:20:54.876Z,21.16
2023-02-06T11:24:10.770Z,21.16
2023-02-06T11:27:18.192Z,21.18
2023-02-06T11:30:34.709Z,21.18
2023-02-06T11:33:46.714Z,21.18
2023-02-06T11:36:54.668Z,21.19
2023-02-06T11:40:15.954Z,21.21
2023-02-06T11:43:22.463Z,21.19
2023-02-06T11:46:28.278Z,21.22
2023-02-06T11:49:31.144Z,21.22
2023-02-06T11:52:35.350Z,21.22
2023-02-06T11:55:42.565Z,21.22
2023-02-06T11:58:46.306Z,21.22
2023-02-06T12:01:49.423Z,21.24
2023-02-06T12:04:56.052Z,21.25
2023-02-06T12:08:03.391Z,21.27
2023-02-06T12:11:12.549Z,21.27
2023-02-06T12:14:20.124Z,21.28
2023-02-06T12:17:28.729Z,21.28
2023-02-06T12:20:34.820Z,21.28
2023-02-06T12:23:43.793Z,21.27
2023-02-06T12:26:48.735Z,21.26
2023-02-06T12:30:08.858Z,21.27
2023-02-06T12:33:17.116Z,21.27
2023-02-06T12:36:21.783Z,21.25
2023-02-06T12:39:26.258Z,21.27
2023-02-06T12:42:42.526Z,21.26
2023-02-06T12:45:51.349Z,21.26
2023-02-06T12:49:03.410Z,21.29
2023-02-06T12:52:13.465Z,21.32
2023-02-06T12:55:23.739Z,21.33
2023-02-06T12:58:30.242Z,21.35
2023-02-06T13:01:46.598Z,21.36
2023-02-06T13:04:50.113Z,21.37
2023-02-06T13:07:55.581Z,21.38
2023-02-06T13:11:06.943Z,21.40
2023-02-06T13:14:22.682Z,21.39
2023-02-06T13:17:27.540Z,21.41
2023-02-06T13:20:33.086Z,21.41
2023-02-06T13:23:36.217Z,21.41
2023-02-06T13:27:15.744Z,21.43
2023-02-06T13:30:51.233Z,21.44
2023-02-06T13:33:57.987Z,21.46
2023-02-06T13:37:21.156Z,21.46
2023-02-06T13:40:32.241Z,21.47
2023-02-06T13:43:37.429Z,21.47
2023-02-06T13:47:19.190Z,21.47
2023-02-06T13:50:50.721Z,21.48
2023-02-06T13:54:13.141Z,21.47
2023-02-06T13:57:26.684Z,21.48
2023-02-06T14:00:32.446Z,21.48
2023-02-06T14:03:38.260Z,21.47
2023-02-06T14:07:04.247Z,21.47
2023-02-06T14:10:22.986Z,21.47
2023-02-06T14:13:42.007Z,21.47
2023-02-06T14:16:54.258Z,21.46
2023-02-06T14:20:07.444Z,21.46
2023-02-06T14:23:21.576Z,21.46
2023-02-06T14:26:35.504Z,21.45
2023-02-06T14:29:50.272Z,21.45
2023-02-06T14:33:03.039Z,21.45
2023-02-06T14:36:20.430Z,21.45
2023-02-06T14:39:41.655Z,21.46
2023-02-06T14:42:46.810Z,21.45
2023-02-06T14:46:08.843Z,21.46
2023-02-06T14:49:17.260Z,21.47
2023-02-06T14:52:25.118Z,21.47
2023-02-06T14:55:33.500Z,21.47
2023-02-06T14:58:36.627Z,21.45
2023-02-06T15:01:39.896Z,21.46
2023-02-06T15:04:47.268Z,21.46
2023-02-06T15:07:59.255Z,21.46
2023-02-06T15:11:05.765Z,21.46
2023-02-06T15:14:22.114Z,21.46
2023-02-06T15:17:27.278Z,21.47
2023-02-06T15:20:37.430Z,21.49
2023-02-06T15:23:59.193Z,21.49
2023-02-06T15:27:08.781Z,21.50
2023-02-06T15:30:19.991Z,21.50
2023-02-06T15:33:27.792Z,21.51
2023-02-06T15:36:32.490Z,21.51
2023-02-06T15:39:39.095Z,21.52
2023-02-06T15:42:43.895Z,21.52
2023-02-06T15:45:48.515Z,21.53
2023-02-06T15:48:54.026Z,21.53
2023-02-06T15:51:58.501Z,21.52
2023-02-06T15:55:03.561Z,21.51
2023-02-06T15:58:06.895Z,21.50
2023-02-06T16:01:17.855Z,21.52
2023-02-06T16:04:25.076Z,21.51
2023-02-06T16:07:31.820Z,21.51
2023-02-06T16:10:38.984Z,21.53
2023-02-06T16:13:42.492Z,21.53
2023-02-06T16:16:57.001Z,21.53
2023-02-06T16:20:02.787Z,21.53
2023-02-06T16:23:24.203Z,21.53
2023-02-06T16:26:30.918Z,21.53
2023-02-06T16:29:34.066Z,21.53
2023-02-06T16:32:45.677Z,21.54
2023-02-06T16:35:50.135Z,21.53
2023-02-06T16:39:03.618Z,21.54
2023-02-06T16:42:12.478Z,21.55
2023-02-06T16:45:19.818Z,21.54
2023-02-06T16:48:22.734Z,21.55
2023-02-06T16:51:28.896Z,21.54
2023-02-06T16:54:34.212Z,21.54
2023-02-06T16:57:41.825Z,21.55
2023-02-06T17:00:45.124Z,21.55
2023-02-06T17:03:47.962Z,21.55
2023-02-06T17:06:52.084Z,21.56
2023-02-06T17:09:57.155Z,21.55
2023-02-06T17:13:01.513Z,21.56
2023-02-06T17:16:04.589Z,21.55
2023-02-06T17:19:07.446Z,21.56
2023-02-06T17:22:11.425Z,21.55
2023-02-06T17:25:14.322Z,21.55
2023-02-06T17:28:20.366Z,21.55
2023-02-06T17:31:23.445Z,21.58
2023-02-06T17:34:27.435Z,21.54
2023-02-06T17:37:30.303Z,21.55
2023-02-06T17:40:36.507Z,21.57
2023-02-06T17:43:41.449Z,21.56
2023-02-06T17:46:44.949Z,21.56
2023-02-06T17:49:47.933Z,21.56
2023-02-06T17:52:52.745Z,21.54
2023-02-06T17:55:55.702Z,21.53
2023-02-06T17:59:00.127Z,21.52
2023-02-06T18:02:03.207Z,21.52
2023-02-06T18:05:07.203Z,21.50
2023-02-06T18:08:10.080Z,21.50
2023-02-06T18:11:14.671Z,21.49
2023-02-06T18:14:19.132Z,21.49
2023-02-06T18:17:22.343Z,21.50
2023-02-06T18:20:25.247Z,21.50
2023-02-06T18:23:28.753Z,21.48
2023-02-06T18:26:31.715Z,21.46
2023-02-06T18:29:49.290Z,21.45
2023-02-06T18:32:52.851Z,21.44
2023-02-06T18:35:55.816Z,21.44
2023-02-06T18:38:58.879Z,21.43
2023-02-06T18:42:19.623Z,21.44
2023-02-06T18:45:31.182Z,21.44
2023-02-06T18:48:34.094Z,21.44
2023-02-06T18:51:36.942Z,21.45
2023-02-06T18:54:40.069Z,21.47
2023-02-06T18:57:43.037Z,21.48
2023-02-06T19:00:47.288Z,21.48
2023-02-06T19:03:52.083Z,21.50
2023-02-06T19:06:55.077Z,21.49
2023-02-06T19:09:59.106Z,21.50
2023-02-06T19:13:01.962Z,21.51
2023-02-06T19:16:08.745Z,21.51
2023-02-06T19:19:12.892Z,21.50
2023-02-06T19:22:15.723Z,21.51
2023-02-06T19:25:19.232Z,21.50
2023-02-06T19:28:22.218Z,21.50
2023-02-06T19:31:26.638Z,21.50
2023-02-06T19:34:29.519Z,21.48
2023-02-06T19:37:35.146Z,21.49
2023-02-06T19:40:39.117Z,21.49
2023-02-06T19:43:43.024Z,21.49
2023-02-06T19:46:47.338Z,21.48
2023-02-06T19:49:52.305Z,21.47
2023-02-06T19:52:55.304Z,21.47
2023-02-06T19:55:58.204Z,21.45
2023-02-06T19:59:06.005Z,21.44
2023-02-06T20:02:17.467Z,21.44
2023-02-06T20:05:26.204Z,21.43
2023-02-06T20:08:29.270Z,21.43
2023-02-06T20:11:33.879Z,21.42
2023-02-06T20:14:36.750Z,21.42
2023-02-06T20:17:40.970Z,21.42
2023-02-06T20:20:43.823Z,21.44
2023-02-06T20:23:46.734Z,21.45
2023-02-06T20:26:52.249Z,21.43
2023-02-06T20:29:55.871Z,21.44
2023-02-06T20:33:00.612Z,21.44
2023-02-06T20:36:06.527Z,21.44
2023-02-06T20:39:11.807Z,21.43
2023-02-06T20:42:15.384Z,21.42
2023-02-06T20:45:18.364Z,21.43
2023-02-06T20:48:22.565Z,21.42
2023-02-06T20:51:26.105Z,21.43
2023-02-06T20:54:30.747Z,21.43
2023-02-06T20:57:35.429Z,21.43
2023-02-06T21:00:38.504Z,21.45
2023-02-06T21:03:43.025Z,21.45
2023-02-06T21:06:47.852Z,21.46
2023-02-06T21:09:50.901Z,21.45
2023-02-06T21:12:53.814Z,21.46
2023-02-06T21:15:58.528Z,21.47
2023-02-06T21:19:03.285Z,21.46
2023-02-06T21:22:06.259Z,21.46
2023-02-06T21:25:09.215Z,21.45
2023-02-06T21:28:12.222Z,21.45
2023-02-06T21:31:18.240Z,21.45
2023-02-06T21:34:25.821Z,21.46
2023-02-06T21:37:28.657Z,21.45
2023-02-06T21:40:31.606Z,21.46
2023-02-06T21:43:35.106Z,21.47
2023-02-06T21:46:38.893Z,21.47
2023-02-06T21:49:43.152Z,21.47
2023-02-06T21:52:46.093Z,21.47
2023-02-06T21:55:49.368Z,21.46
2023-02-06T21:58:53.104Z,21.46
2023-02-06T22:01:56.019Z,21.47
2023-02-06T22:05:00.379Z,21.46
2023-02-06T22:08:03.319Z,21.46
2023-02-06T22:11:13.033Z,21.46
2023-02-06T22:14:19.041Z,21.45
2023-02-06T22:17:21.948Z,21.46
2023-02-06T22:20:26.404Z,21.47
2023-02-06T22:23:29.207Z,21.48
2023-02-06T22:26:33.115Z,21.49
2023-02-06T22:29:36.085Z,21.50
2023-02-06T22:32:40.104Z,21.52
2023-02-06T22:35:44.313Z,21.51
2023-02-06T22:38:48.362Z,21.52
2023-02-06T22:41:51.776Z,21.50
2023-02-06T22:44:54.679Z,21.52
2023-02-06T22:47:57.974Z,21.52
2023-02-06T22:51:06.818Z,21.51
2023-02-06T22:54:10.405Z,21.50
2023-02-06T22:57:13.252Z,21.50
2023-02-06T23:00:18.479Z,21.49
2023-02-06T23:03:21.396Z,21.49
2023-02-06T23:06:26.873Z,21.48
2023-02-06T23:09:32.986Z,21.46
2023-02-06T23:12:35.955Z,21.46
2023-02-06T23:15:41.022Z,21.47
2023-02-06T23:18:44.031Z,21.47
2023-02-06T23:21:51.178Z,21.48
2023-02-06T23:24:54.048Z,21.46
2023-02-06T23:27:56.930Z,21.47
2023-02-06T23:30:59.763Z,21.47
2023-02-06T23:34:02.771Z,21.47
2023-02-06T23:37:06.976Z,21.47
2023-02-06T23:40:11.394Z,21.47
2023-02-06T23:43:15.364Z,21.47
2023-02-06T23:46:20.016Z,21.48
2023-02-06T23:49:22.928Z,21.48
2023-02-06T23:52:28.551Z,21.47
2023-02-06T23:55:31.371Z,21.48
2023-02-06T23:58:34.271Z,21.47
